Time;durP1;ratioP1;P1;durP2;ratioP2;P2;SDS_P1;SDS_P2;PMS_P1;PMS_P2;Temp;Humidity;BMP_temperature;BMP_pressure;BME280_temperature;BME280_humidity;BME280_pressure;Samples;Min_cycle;Max_cycle;Signal;HPM_P1;HPM_P2
2021/06/01 00:01:53;;;;;;;2.52;1.77;;;;;;;12.50;84.04;100916.92;1790967;79;25598;-58
2021/06/01 00:04:20;;;;;;;2.30;1.45;;;;;;;12.48;84.28;100930.18;1781118;80;25539;-59
2021/06/01 00:06:48;;;;;;;2.72;1.77;;;;;;;12.45;83.98;100924.58;1794526;79;25734;-59
2021/06/01 00:09:18;;;;;;;4.20;1.40;;;;;;;12.43;83.45;100932.47;1812202;78;25534;-58
2021/06/01 00:11:46;;;;;;;2.05;1.67;;;;;;;12.44;83.15;100928.78;1799062;78;27371;-59
2021/06/01 00:14:14;;;;;;;3.72;1.57;;;;;;;12.42;82.95;100931.60;1819342;77;25717;-59
2021/06/01 00:16:42;;;;;;;10.25;1.90;;;;;;;12.41;83.06;100931.76;1805946;78;26270;-59
2021/06/01 00:19:10;;;;;;;2.00;1.70;;;;;;;12.39;82.96;100929.22;1791657;78;25739;-58
2021/06/01 00:21:39;;;;;;;2.42;1.50;;;;;;;12.39;82.76;100929.70;1777576;78;25508;-58
2021/06/01 00:24:09;;;;;;;4.40;1.40;;;;;;;12.35;82.61;100924.61;1794549;78;45539;-59
2021/06/01 00:26:39;;;;;;;6.33;1.70;;;;;;;12.33;82.48;100927.07;1785574;80;25682;-59
2021/06/01 00:29:07;;;;;;;1.80;1.42;;;;;;;12.29;82.67;100927.02;1790046;80;25543;-58
2021/06/01 00:31:34;;;;;;;3.33;1.42;;;;;;;12.25;83.08;100928.29;1770492;80;25773;-58
2021/06/01 00:34:03;;;;;;;4.78;1.52;;;;;;;12.24;83.14;100927.45;1780535;78;25691;-59
2021/06/01 00:36:31;;;;;;;1.92;1.47;;;;;;;12.25;83.18;100924.25;1815596;78;27313;-58
2021/06/01 00:38:57;;;;;;;1.47;1.30;;;;;;;12.24;83.23;100927.96;1812413;78;25527;-58
2021/06/01 00:41:25;;;;;;;2.80;1.35;;;;;;;12.20;82.98;100923.33;1787522;78;25616;-59
2021/06/01 00:43:51;;;;;;;4.55;2.00;;;;;;;12.18;82.87;100934.27;1800062;78;25779;-59
2021/06/01 00:46:19;;;;;;;1.70;1.22;;;;;;;12.16;83.05;100930.85;1779965;80;25616;-59
2021/06/01 00:48:46;;;;;;;1.75;1.30;;;;;;;12.16;83.21;100934.06;1790064;80;27421;-58
2021/06/01 00:51:13;;;;;;;2.95;1.65;;;;;;;12.15;83.36;100924.27;1782270;80;25606;-59
2021/06/01 00:53:40;;;;;;;1.50;1.40;;;;;;;12.13;83.75;100919.02;1811004;78;25608;-59
2021/06/01 00:56:08;;;;;;;1.52;1.30;;;;;;;12.11;84.04;100916.96;1778850;80;25757;-59
2021/06/01 00:58:36;;;;;;;4.33;1.22;;;;;;;12.12;83.77;100921.84;1818092;78;25578;-59
2021/06/01 01:03:38;;;;;;;7.70;1.85;;;;;;;12.20;84.24;100921.98;1802383;78;25598;-58
2021/06/01 01:06:19;;;;;;;2.08;1.37;;;;;;;12.20;84.29;100921.98;1793844;79;25571;-58
2021/06/01 01:08:54;;;;;;;1.77;1.50;;;;;;;12.17;84.40;100927.16;1742505;80;26466;-59
2021/06/01 01:11:49;;;;;;;1.72;1.50;;;;;;;12.16;84.35;100923.27;1765775;80;26868;-59
2021/06/01 01:14:33;;;;;;;5.42;1.17;;;;;;;12.17;84.85;100923.12;1773353;80;27438;-58
2021/06/01 01:17:17;;;;;;;1.82;1.42;;;;;;;12.18;85.05;100929.38;1778517;79;31918;-58
2021/06/01 01:19:52;;;;;;;1.47;1.37;;;;;;;12.13;84.95;100927.11;1796584;78;25573;-57
2021/06/01 01:22:20;;;;;;;2.72;1.50;;;;;;;12.13;84.80;100931.16;1799835;78;26564;-57
2021/06/01 01:24:58;;;;;;;1.37;1.27;;;;;;;12.11;84.65;100931.80;1773936;80;25618;-57
2021/06/01 01:27:48;;;;;;;1.40;1.10;;;;;;;12.07;84.38;100937.09;1783859;80;27484;-57
2021/06/01 01:30:17;;;;;;;1.45;1.25;;;;;;;12.05;84.73;100934.55;1815188;78;25680;-58
2021/06/01 01:33:03;;;;;;;5.00;1.30;;;;;;;12.05;84.58;100938.60;1789564;78;25626;-58
2021/06/01 01:35:32;;;;;;;1.52;1.32;;;;;;;12.04;84.75;100944.14;1793039;80;26308;-58
2021/06/01 01:38:01;;;;;;;1.85;1.42;;;;;;;12.05;85.02;100946.69;1780827;79;25753;-58
2021/06/01 01:40:31;;;;;;;4.08;1.40;;;;;;;12.05;85.34;100945.34;1783762;80;27384;-58
2021/06/01 01:43:03;;;;;;;2.37;2.17;;;;;;;12.02;85.05;100940.73;1759796;80;25620;-58
2021/06/01 01:45:40;;;;;;;1.35;1.25;;;;;;;11.99;84.69;100938.31;1777339;80;25657;-58
2021/06/01 01:50:58;;;;;;;5.15;1.55;;;;;;;11.99;84.84;100942.35;1793794;78;25650;-58
2021/06/01 01:53:26;;;;;;;1.62;1.40;;;;;;;11.99;85.06;100947.27;1778242;80;28533;-57
2021/06/01 01:55:54;;;;;;;2.85;1.40;;;;;;;11.95;84.84;100948.49;1817950;78;25508;-58
2021/06/01 01:58:21;;;;;;;3.52;1.50;;;;;;;11.94;85.09;100949.48;1828529;77;25730;-57
2021/06/01 02:00:49;;;;;;;2.45;1.40;;;;;;;11.95;85.39;100944.45;1806376;79;26780;-58
2021/06/01 02:03:21;;;;;;;51.60;27.85;;;;;;;11.94;85.18;100948.13;1806912;78;26466;-57
2021/06/01 02:05:50;;;;;;;6.67;4.50;;;;;;;11.92;85.05;100950.62;1807298;78;27391;-57
2021/06/01 02:08:16;;;;;;;1.55;1.45;;;;;;;11.89;85.54;100945.02;1815456;77;25496;-57
2021/06/01 02:10:44;;;;;;;4.20;1.30;;;;;;;11.86;85.03;100946.16;1809197;77;25625;-57
2021/06/01 02:13:12;;;;;;;2.35;1.15;;;;;;;11.84;85.26;100949.96;1809704;78;25762;-57
2021/06/01 02:15:40;;;;;;;1.65;1.45;;;;;;;11.83;85.48;100956.38;1809005;78;26117;-58
2021/06/01 02:18:07;;;;;;;7.75;2.15;;;;;;;11.80;85.73;100950.74;1809003;78;27465;-58
2021/06/01 02:20:34;;;;;;;3.83;0.90;;;;;;;11.81;85.62;100951.61;1780010;78;26295;-58
2021/06/01 02:26:01;;;;;;;1.37;1.12;;;;;;;11.77;85.84;100954.22;1771658;79;25604;-57
2021/06/01 02:28:36;;;;;;;3.27;1.17;;;;;;;11.75;85.68;100955.72;1785555;80;25596;-57
2021/06/01 02:31:08;;;;;;;1.30;1.20;;;;;;;11.72;85.75;100955.98;1789139;79;27433;-58
2021/06/01 02:33:38;;;;;;;9.40;1.20;;;;;;;11.67;85.92;100955.05;1774777;79;25591;-57
2021/06/01 02:36:07;;;;;;;4.90;1.42;;;;;;;11.66;86.11;100958.73;1787139;80;25620;-58
2021/06/01 02:38:35;;;;;;;4.28;1.35;;;;;;;11.63;85.78;100956.34;1788389;80;26597;-57
2021/06/01 02:41:04;;;;;;;1.15;1.05;;;;;;;11.63;85.76;100962.20;1770009;80;25630;-59
2021/06/01 02:43:32;;;;;;;2.08;1.05;;;;;;;11.59;85.62;100957.59;1779661;79;27378;-58
2021/06/01 02:46:00;;;;;;;3.67;1.30;;;;;;;11.57;85.58;100962.25;1780054;79;25660;-58
2021/06/01 02:48:28;;;;;;;3.80;1.20;;;;;;;11.55;85.77;100962.41;1781245;80;25616;-58
2021/06/01 02:50:58;;;;;;;2.92;1.10;;;;;;;11.51;86.05;100970.42;1774063;80;26230;-58
2021/06/01 02:53:26;;;;;;;2.30;1.20;;;;;;;11.50;86.21;100970.06;1778985;80;25397;-58
2021/06/01 02:55:53;;;;;;;1.87;1.40;;;;;;;11.47;85.95;100968.14;1777382;80;27457;-57
2021/06/01 02:58:21;;;;;;;3.67;1.30;;;;;;;11.47;85.98;100968.14;1777359;80;25524;-58
2021/06/01 03:00:48;;;;;;;1.95;1.22;;;;;;;11.45;85.87;100966.07;1783152;79;26183;-58
2021/06/01 03:03:15;;;;;;;1.42;1.05;;;;;;;11.45;85.89;100970.95;1805698;79;25763;-57
2021/06/01 03:05:43;;;;;;;1.17;1.02;;;;;;;11.46;86.04;100966.43;1774463;80;25635;-58
2021/06/01 03:08:27;;;;;;;4.12;1.10;;;;;;;11.45;85.66;100971.45;1785006;80;27454;-58
2021/06/01 03:11:02;;;;;;;5.17;1.35;;;;;;;11.43;85.81;100974.27;1789484;80;25591;-59
2021/06/01 03:13:31;;;;;;;1.55;1.05;;;;;;;11.42;85.68;100977.98;1768120;79;25517;-57
2021/06/01 03:15:58;;;;;;;5.10;1.20;;;;;;;11.43;85.83;100976.48;1812484;79;25719;-58
2021/06/01 03:18:26;;;;;;;2.30;1.07;;;;;;;11.42;85.32;100977.47;1786413;80;26237;-58
2021/06/01 03:20:53;;;;;;;2.55;1.47;;;;;;;11.45;85.58;100983.07;1780479;80;27417;-58
2021/06/01 03:23:21;;;;;;;2.90;1.27;;;;;;;11.41;85.85;100972.23;1781871;78;26134;-58
2021/06/01 03:25:49;;;;;;;3.52;1.07;;;;;;;11.39;85.41;100972.85;1778815;80;25580;-58
2021/06/01 03:28:17;;;;;;;5.35;1.70;;;;;;;11.37;85.60;100977.05;1780859;80;25821;-58
2021/06/01 03:30:44;;;;;;;3.20;1.30;;;;;;;11.33;85.84;100976.10;1781073;80;25547;-58
2021/06/01 03:33:11;;;;;;;1.50;1.12;;;;;;;11.31;85.84;100973.52;1811725;78;27409;-58
2021/06/01 03:35:38;;;;;;;2.12;1.20;;;;;;;11.31;85.99;100976.72;1789317;78;25391;-58
2021/06/01 03:38:06;;;;;;;1.17;0.95;;;;;;;11.31;85.54;100985.64;1815290;78;25613;-58
2021/06/01 03:40:33;;;;;;;3.85;1.22;;;;;;;11.28;85.93;100978.70;1754974;80;25757;-59
2021/06/01 03:43:01;;;;;;;4.80;1.45;;;;;;;11.26;86.24;100986.05;1784488;80;25563;-57
2021/06/01 03:45:28;;;;;;;2.70;1.47;;;;;;;11.27;86.12;100983.72;1778541;80;27415;-57
2021/06/01 03:47:55;;;;;;;5.33;1.42;;;;;;;11.27;85.87;100985.06;1777115;79;25579;-57
2021/06/01 03:50:23;;;;;;;2.45;1.12;;;;;;;11.24;85.98;100988.05;1807453;79;25647;-57
2021/06/01 03:52:51;;;;;;;7.25;1.90;;;;;;;11.26;86.25;100987.39;1774013;80;25731;-57
2021/06/01 03:55:19;;;;;;;1.55;1.20;;;;;;;11.28;86.00;100989.47;1763399;81;25356;-58
2021/06/01 03:57:49;;;;;;;3.85;1.27;;;;;;;11.28;85.95;100992.67;1763776;80;28085;-57
2021/06/01 04:00:25;;;;;;;4.90;2.05;;;;;;;11.31;85.96;100996.92;1793172;79;25745;-57
2021/06/01 04:02:52;;;;;;;3.42;1.15;;;;;;;11.32;85.29;100996.78;1798814;78;25587;-57
2021/06/01 04:05:18;;;;;;;4.50;1.57;;;;;;;11.32;85.73;100997.28;1788932;79;26126;-57
2021/06/01 04:07:47;;;;;;;1.85;1.22;;;;;;;11.28;85.98;100998.89;1772361;80;25656;-57
2021/06/01 04:10:16;;;;;;;9.88;1.27;;;;;;;11.30;85.35;100998.75;1786953;79;27944;-57
2021/06/01 04:12:44;;;;;;;3.05;1.45;;;;;;;11.30;85.57;101000.60;1764621;80;25544;-57
2021/06/01 04:15:12;;;;;;;3.95;1.50;;;;;;;11.28;85.61;101005.63;1787763;80;25606;-57
2021/06/01 04:17:39;;;;;;;1.82;1.20;;;;;;;11.30;85.77;100999.26;1781510;80;25747;-58
2021/06/01 04:20:08;;;;;;;5.53;2.70;;;;;;;11.31;85.31;100999.62;1787161;80;26391;-57
2021/06/01 04:22:35;;;;;;;5.75;1.85;;;;;;;11.25;85.08;101000.50;1777882;79;27381;-57
2021/06/01 04:25:06;;;;;;;4.35;1.47;;;;;;;11.26;84.99;101002.20;1810754;78;25335;-58
2021/06/01 04:27:33;;;;;;;1.75;1.12;;;;;;;11.28;85.08;101005.63;1779614;80;25646;-58
2021/06/01 04:30:00;;;;;;;4.67;2.40;;;;;;;11.27;85.04;100995.84;1781985;79;25659;-58
2021/06/01 04:32:27;;;;;;;3.85;1.65;;;;;;;11.26;85.11;101006.25;1785917;80;25578;-57
2021/06/01 04:34:54;;;;;;;10.82;1.95;;;;;;;11.27;85.34;101003.92;1787909;80;26839;-57
2021/06/01 04:37:21;;;;;;;7.33;1.37;;;;;;;11.27;84.59;101001.22;1803898;78;25653;-59
2021/06/01 04:39:48;;;;;;;2.40;1.37;;;;;;;11.26;84.79;101016.18;1794292;79;25582;-58
2021/06/01 04:42:15;;;;;;;4.37;1.60;;;;;;;11.25;83.96;101013.13;1794259;79;25770;-59
2021/06/01 04:44:43;;;;;;;2.47;1.47;;;;;;;11.25;84.74;101015.31;1793584;78;25740;-58
2021/06/01 04:47:09;;;;;;;5.17;1.40;;;;;;;11.29;85.16;101015.92;1807714;78;27828;-58
2021/06/01 04:49:36;;;;;;;6.30;1.82;;;;;;;11.30;84.90;101017.59;1812732;79;25476;-59
2021/06/01 04:52:05;;;;;;;5.90;1.00;;;;;;;11.35;84.89;101017.20;1777249;79;25625;-58
2021/06/01 04:54:32;;;;;;;5.10;1.20;;;;;;;11.37;84.30;101020.61;1774385;80;25740;-58
2021/06/01 04:56:59;;;;;;;7.25;1.72;;;;;;;11.40;83.78;101029.27;1776277;80;25825;-59
2021/06/01 04:59:26;;;;;;;2.33;1.30;;;;;;;11.42;83.87;101031.34;1783086;78;27992;-58
2021/06/01 05:01:52;;;;;;;4.20;1.40;;;;;;;11.46;83.35;101031.09;1814453;79;25682;-58
2021/06/01 05:04:19;;;;;;;4.70;1.57;;;;;;;11.49;83.80;101033.48;1781425;79;25555;-57
2021/06/01 05:06:46;;;;;;;4.10;1.32;;;;;;;11.54;83.42;101036.14;1773983;80;25774;-58
2021/06/01 05:09:13;;;;;;;2.58;1.20;;;;;;;11.53;82.35;101037.13;1777979;80;25696;-57
2021/06/01 05:11:41;;;;;;;3.25;1.42;;;;;;;11.54;82.42;101039.34;1778450;80;27510;-58
2021/06/01 05:14:11;;;;;;;6.75;1.50;;;;;;;11.56;82.81;101037.37;1766363;80;25651;-58
2021/06/01 05:16:37;;;;;;;3.98;1.37;;;;;;;11.59;82.48;101033.91;1785364;80;25672;-58
2021/06/01 05:19:04;;;;;;;3.12;1.25;;;;;;;11.64;82.15;101040.70;1785743;80;25753;-58
2021/06/01 05:21:31;;;;;;;9.45;1.20;;;;;;;11.67;81.59;101043.14;1785731;80;25600;-58
2021/06/01 05:23:57;;;;;;;5.05;1.00;;;;;;;11.68;81.45;101044.84;1788149;78;27491;-58
2021/06/01 05:26:25;;;;;;;3.45;1.70;;;;;;;11.73;81.39;101047.97;1821682;77;25537;-58
2021/06/01 05:28:53;;;;;;;1.62;0.95;;;;;;;11.70;80.92;101052.28;1818587;77;25617;-58
2021/06/01 05:33:54;;;;;;;4.35;1.47;;;;;;;11.70;81.27;101056.32;1777274;79;25606;-58
2021/06/01 05:36:21;;;;;;;2.50;1.12;;;;;;;11.67;80.59;101052.58;1787036;80;28057;-58
2021/06/01 05:38:48;;;;;;;2.62;1.77;;;;;;;11.66;81.35;101064.34;1782381;80;25645;-58
2021/06/01 05:41:15;;;;;;;6.20;1.30;;;;;;;11.62;81.22;101060.20;1782750;78;25861;-58
2021/06/01 05:43:42;;;;;;;4.90;1.60;;;;;;;11.62;80.91;101066.93;1785151;79;25742;-58
2021/06/01 05:46:10;;;;;;;1.30;1.10;;;;;;;11.61;80.61;101066.60;1773275;78;25800;-58
2021/06/01 05:48:37;;;;;;;1.40;1.30;;;;;;;11.63;80.09;101066.81;1784445;79;28331;-58
2021/06/01 05:51:05;;;;;;;1.40;1.30;;;;;;;11.63;80.07;101069.52;1788555;80;25575;-58
2021/06/01 05:53:33;;;;;;;6.67;1.20;;;;;;;11.63;80.03;101065.47;1787188;80;25443;-58
2021/06/01 05:56:00;;;;;;;5.40;1.32;;;;;;;11.65;80.05;101066.20;1809207;78;25730;-58
2021/06/01 05:58:27;;;;;;;4.33;1.32;;;;;;;11.68;79.66;101073.14;1804706;79;25598;-58
2021/06/01 06:00:55;;;;;;;3.70;1.77;;;;;;;11.72;80.00;101064.66;1757512;80;26805;-58
2021/06/01 06:03:22;;;;;;;13.55;2.10;;;;;;;11.78;79.78;101063.26;1800411;78;26106;-59
2021/06/01 06:05:49;;;;;;;6.22;1.10;;;;;;;11.85;79.06;101064.89;1767726;80;25560;-59
2021/06/01 06:08:19;;;;;;;2.17;1.32;;;;;;;11.84;79.18;101061.35;1794982;78;25793;-58
2021/06/01 06:10:49;;;;;;;6.45;1.57;;;;;;;11.85;79.12;101065.75;1769845;80;25563;-58
2021/06/01 06:13:17;;;;;;;2.22;1.15;;;;;;;11.89;77.77;101072.56;1780147;80;27363;-58
2021/06/01 06:15:45;;;;;;;6.10;1.00;;;;;;;11.87;77.00;101072.34;1787822;79;25626;-57
2021/06/01 06:18:32;;;;;;;5.40;1.27;;;;;;;11.82;77.48;101075.45;1806614;78;25614;-58
2021/06/01 06:21:02;;;;;;;1.67;1.07;;;;;;;11.78;77.39;101070.00;1765499;80;26118;-59
2021/06/01 06:23:38;;;;;;;10.90;1.25;;;;;;;11.79;77.68;101080.27;1781623;80;25694;-58
2021/06/01 06:26:04;;;;;;;4.10;1.30;;;;;;;11.75;77.44;101072.45;1787289;80;27486;-59
2021/06/01 06:28:32;;;;;;;6.87;1.30;;;;;;;11.74;78.24;101083.38;1801141;78;25663;-59
2021/06/01 06:31:00;;;;;;;3.90;1.60;;;;;;;11.73;76.89;101078.49;1767545;80;25643;-58
2021/06/01 06:33:27;;;;;;;1.85;1.10;;;;;;;11.67;77.47;101084.91;1764310;80;25738;-58
2021/06/01 06:35:54;;;;;;;4.05;1.32;;;;;;;11.70;78.04;101083.27;1796372;79;25650;-58
2021/06/01 06:38:22;;;;;;;2.50;1.30;;;;;;;11.71;77.85;101082.28;1771249;80;27491;-58
2021/06/01 06:41:13;;;;;;;2.08;1.05;;;;;;;11.69;78.07;101077.55;1755647;81;25770;-58
2021/06/01 06:43:18;;;;;;;4.78;1.50;;;;;;;11.68;77.74;101078.03;1750877;81;25367;-59
2021/06/01 06:45:46;;;;;;;3.95;1.40;;;;;;;11.70;78.35;101076.53;1764245;80;26342;-58
2021/06/01 06:48:13;;;;;;;4.70;1.57;;;;;;;11.71;78.17;101079.11;1760685;79;25560;-58
2021/06/01 06:50:41;;;;;;;6.80;1.30;;;;;;;11.71;78.74;101077.77;1781986;79;28140;-58
2021/06/01 06:53:08;;;;;;;27.55;2.85;;;;;;;11.75;78.49;101081.04;1786049;78;25644;-58
2021/06/01 06:55:34;;;;;;;2.35;1.12;;;;;;;11.74;77.99;101087.41;1790756;78;25679;-58
2021/06/01 06:58:02;;;;;;;6.03;1.57;;;;;;;11.76;79.08;101082.75;1811289;78;25773;-58
2021/06/01 07:00:30;;;;;;;1.67;1.57;;;;;;;11.81;78.53;101083.69;1813937;78;25594;-58
2021/06/01 07:02:58;;;;;;;2.98;1.45;;;;;;;11.80;78.59;101088.72;1785763;80;27406;-58
2021/06/01 07:05:25;;;;;;;8.08;1.70;;;;;;;11.82;78.60;101084.89;1789582;78;25348;-58
2021/06/01 07:07:53;;;;;;;4.70;1.72;;;;;;;11.83;79.04;101088.45;1785719;79;25618;-58
2021/06/01 07:10:22;;;;;;;9.10;1.62;;;;;;;11.87;78.74;101084.00;1785927;79;25781;-57
2021/06/01 07:12:49;;;;;;;6.42;1.50;;;;;;;11.89;79.41;101083.34;1790425;79;25664;-58
2021/06/01 07:15:30;;;;;;;5.47;1.35;;;;;;;11.92;78.99;101090.81;1810260;78;27386;-58
2021/06/01 07:18:00;;;;;;;4.62;1.98;;;;;;;11.96;78.37;101089.05;1749527;81;25438;-58
2021/06/01 07:20:32;;;;;;;7.10;1.70;;;;;;;11.95;78.94;101090.55;1749261;82;25579;-58
2021/06/01 07:23:00;;;;;;;4.47;1.52;;;;;;;11.97;77.96;101092.61;1778651;80;26855;-58
2021/06/01 07:25:28;;;;;;;4.47;1.22;;;;;;;12.00;78.72;101092.35;1785873;80;25650;-58
2021/06/01 07:27:55;;;;;;;8.80;1.80;;;;;;;12.03;79.21;101092.92;1785656;80;28523;-57
2021/06/01 07:30:23;;;;;;;3.67;1.82;;;;;;;12.10;78.87;101097.79;1786370;78;26291;-58
2021/06/01 07:32:50;;;;;;;4.47;1.65;;;;;;;12.19;79.03;101092.91;1785944;79;25336;-58
2021/06/01 07:35:17;;;;;;;6.90;1.52;;;;;;;12.33;78.07;101091.15;1774074;80;25731;-58
2021/06/01 07:37:45;;;;;;;3.83;1.40;;;;;;;12.39;77.60;101096.48;1787875;80;25699;-57
2021/06/01 07:40:12;;;;;;;2.80;1.30;;;;;;;12.40;76.31;101091.93;1777530;80;27421;-58
2021/06/01 07:42:40;;;;;;;5.65;2.10;;;;;;;12.36;76.96;101094.06;1807250;79;25603;-58
2021/06/01 07:45:09;;;;;;;4.50;1.50;;;;;;;12.36;76.68;101095.41;1787991;80;25657;-58
2021/06/01 07:47:36;;;;;;;5.53;1.60;;;;;;;12.43;78.35;101102.45;1782672;80;25794;-57
2021/06/01 07:50:06;;;;;;;4.58;1.62;;;;;;;12.46;78.01;101102.18;1778110;80;25635;-58
2021/06/01 07:52:33;;;;;;;4.55;1.67;;;;;;;12.57;77.49;101099.33;1777780;80;27392;-58
2021/06/01 07:55:00;;;;;;;5.55;1.40;;;;;;;12.60;77.50;101107.63;1762992;80;25655;-58
2021/06/01 07:57:27;;;;;;;3.85;1.30;;;;;;;12.68;76.16;101106.45;1758339;80;25663;-57
2021/06/01 07:59:53;;;;;;;3.55;1.40;;;;;;;12.74;76.55;101105.01;1761665;80;25825;-58
2021/06/01 08:02:20;;;;;;;7.75;2.10;;;;;;;12.76;75.60;101109.30;1776853;80;25706;-58
2021/06/01 08:04:47;;;;;;;5.62;1.52;;;;;;;12.74;76.50;101104.53;1757639;80;28309;-58
2021/06/01 08:07:16;;;;;;;4.65;1.70;;;;;;;12.78;76.53;101099.69;1774480;80;25650;-58
2021/06/01 08:09:43;;;;;;;5.60;1.40;;;;;;;12.87;76.91;101106.06;1775935;80;25600;-57
2021/06/01 08:12:10;;;;;;;7.92;1.92;;;;;;;12.90;75.03;101102.61;1762474;80;25809;-58
2021/06/01 08:14:37;;;;;;;6.85;2.33;;;;;;;12.96;76.26;101106.08;1752863;80;25754;-58
2021/06/01 08:17:05;;;;;;;4.83;1.40;;;;;;;13.03;76.25;101101.44;1746978;80;28024;-58
2021/06/01 08:19:39;;;;;;;3.70;1.70;;;;;;;13.13;76.55;101107.17;1777662;80;25557;-58
2021/06/01 08:22:49;;;;;;;16.80;2.62;;;;;;;13.16;74.99;101110.11;1777344;80;25387;-56
2021/06/01 08:24:33;;;;;;;3.00;1.52;;;;;;;13.16;75.55;101099.30;1763412;79;25806;-59
2021/06/01 08:27:00;;;;;;;2.47;1.30;;;;;;;13.22;75.41;101104.63;1777813;80;25655;-59
2021/06/01 08:29:28;;;;;;;9.93;1.50;;;;;;;13.24;75.66;101098.08;1764824;80;27379;-59
2021/06/01 08:31:55;;;;;;;5.70;2.33;;;;;;;13.27;76.24;101105.03;1775912;80;25595;-59
2021/06/01 08:34:22;;;;;;;3.83;1.10;;;;;;;13.33;75.57;101108.48;1777704;80;25585;-58
2021/06/01 08:36:49;;;;;;;2.95;1.45;;;;;;;13.44;75.87;101115.63;1777673;80;26440;-58
2021/06/01 08:39:23;;;;;;;2.95;1.32;;;;;;;13.48;73.81;101110.27;1777809;80;25560;-59
2021/06/01 08:41:45;;;;;;;3.58;1.85;;;;;;;13.51;73.01;101111.33;1776718;80;27593;-59
2021/06/01 08:44:14;;;;;;;11.43;1.90;;;;;;;13.48;73.68;101119.72;1776564;80;25706;-59
2021/06/01 08:46:41;;;;;;;7.92;2.20;;;;;;;13.56;72.90;101108.19;1777608;80;25509;-59
2021/06/01 08:49:13;;;;;;;5.90;1.50;;;;;;;13.63;73.60;101106.59;1751579;80;25781;-58
2021/06/01 08:51:40;;;;;;;4.03;1.40;;;;;;;13.67;73.66;101102.57;1777818;80;25678;-58
2021/06/01 08:54:08;;;;;;;6.33;1.60;;;;;;;13.76;73.33;101099.49;1777843;80;28029;-57
2021/06/01 08:56:35;;;;;;;4.33;1.25;;;;;;;13.86;73.23;101103.01;1777777;80;25592;-58
2021/06/01 08:59:03;;;;;;;7.35;1.27;;;;;;;13.91;73.05;101103.39;1761969;80;25556;-58
2021/06/01 09:01:30;;;;;;;10.90;2.00;;;;;;;13.96;71.20;101097.53;1760469;80;25677;-58
2021/06/01 09:04:06;;;;;;;4.72;1.27;;;;;;;13.98;72.52;101106.36;1777702;80;25645;-61
2021/06/01 09:06:37;;;;;;;4.58;1.87;;;;;;;14.12;72.99;101102.81;1720998;82;27403;-58
2021/06/01 09:11:55;;;;;;;5.22;1.47;;;;;;;14.12;69.95;101098.23;1747218;82;25324;-58
2021/06/01 09:22:42;;;;;;;5.40;1.50;;;;;;;14.20;69.89;101091.56;1746708;80;25679;-58
2021/06/01 09:25:20;;;;;;;5.20;1.67;;;;;;;14.32;70.17;101085.95;1749965;80;26343;-58
2021/06/01 09:27:55;;;;;;;5.40;1.20;;;;;;;14.38;70.04;101085.32;1754331;81;25741;-58
2021/06/01 09:30:41;;;;;;;2.45;1.57;;;;;;;14.48;69.29;101079.34;1769857;81;25407;-58
2021/06/01 09:33:19;;;;;;;2.00;1.30;;;;;;;14.54;69.84;101083.29;1753490;81;26806;-58
2021/06/01 09:36:12;;;;;;;3.25;1.55;;;;;;;14.60;69.94;101083.17;1769188;81;25660;-61
2021/06/01 09:38:47;;;;;;;2.85;1.52;;;;;;;14.70;67.85;101079.41;1763743;81;25597;-62
2021/06/01 09:41:22;;;;;;;4.10;1.30;;;;;;;14.74;68.33;101080.45;1740207;81;25616;-60
2021/06/01 09:44:03;;;;;;;2.92;1.95;;;;;;;14.80;67.54;101086.59;1774365;80;25370;-62
2021/06/01 09:46:39;;;;;;;3.85;1.75;;;;;;;14.86;66.05;101079.19;1784183;80;28614;-57
2021/06/01 09:49:20;;;;;;;4.20;1.75;;;;;;;15.01;66.25;101068.16;1764394;78;25613;-57
2021/06/01 09:51:57;;;;;;;3.22;1.85;;;;;;;15.30;68.06;101071.03;1824611;78;25630;-57
2021/06/01 09:54:57;;;;;;;2.98;1.37;;;;;;;15.70;68.01;101062.44;1824281;78;26965;-58
2021/06/01 09:57:26;;;;;;;4.47;1.92;;;;;;;15.90;65.29;101051.70;1823628;78;25567;-57
2021/06/01 10:00:24;;;;;;;7.78;1.77;;;;;;;15.79;63.85;101062.81;1824328;78;27416;-58
2021/06/01 10:03:02;;;;;;;3.22;1.12;;;;;;;15.75;64.09;101062.78;1818876;78;25594;-57
2021/06/01 10:05:33;;;;;;;3.20;1.42;;;;;;;15.80;64.11;101065.87;1792108;79;25706;-58
2021/06/01 10:08:11;;;;;;;3.15;1.35;;;;;;;15.77;65.49;101068.41;1791901;80;25736;-58
2021/06/01 10:10:38;;;;;;;4.67;1.30;;;;;;;15.91;64.99;101062.03;1792127;79;26097;-57
2021/06/01 10:13:10;;;;;;;4.10;1.50;;;;;;;15.92;65.25;101057.79;1791997;80;27442;-59
2021/06/01 10:15:39;;;;;;;1.92;1.20;;;;;;;16.05;65.86;101061.91;1792858;78;25649;-58
2021/06/01 10:18:10;;;;;;;4.53;1.47;;;;;;;16.25;64.08;101052.96;1792161;80;25488;-59
2021/06/01 10:20:39;;;;;;;2.08;1.22;;;;;;;16.30;64.77;101052.46;1807540;78;25744;-58
2021/06/01 10:23:08;;;;;;;2.87;1.60;;;;;;;16.34;63.88;101052.48;1820551;78;25692;-58
2021/06/01 10:25:36;;;;;;;4.80;1.70;;;;;;;16.47;63.07;101054.17;1820974;78;27997;-58
2021/06/01 10:28:08;;;;;;;5.05;1.30;;;;;;;16.47;63.93;101050.63;1821095;78;26208;-58
2021/06/01 10:30:39;;;;;;;1.77;1.07;;;;;;;16.60;62.14;101044.17;1751065;81;25618;-58
2021/06/01 10:33:13;;;;;;;3.15;1.20;;;;;;;16.50;62.84;101046.20;1777806;78;25737;-58
2021/06/01 10:35:52;;;;;;;4.85;1.17;;;;;;;16.37;61.44;101047.56;1771911;79;25772;-58
2021/06/01 10:50:08;;;;;;;2.92;1.25;;;;;;;16.10;63.03;101043.25;1819945;78;25544;-58
2021/06/01 10:52:31;;;;;;;3.70;1.30;;;;;;;16.15;63.12;101045.47;1818961;78;27425;-58
2021/06/01 10:55:09;;;;;;;7.40;1.20;;;;;;;16.14;62.61;101042.44;1819650;78;25649;-58
2021/06/01 10:57:59;;;;;;;4.87;1.50;;;;;;;16.30;62.62;101045.67;1819756;78;25321;-59
2021/06/01 11:03:19;;;;;;;2.92;1.30;;;;;;;16.76;63.51;101033.82;1752098;81;25614;-60
2021/06/01 11:06:03;;;;;;;1.67;1.17;;;;;;;17.09;59.35;101028.37;1768664;81;27409;-57
2021/06/01 11:08:43;;;;;;;6.20;1.52;;;;;;;17.22;59.72;101027.83;1765059;81;25426;-57
2021/06/01 11:11:31;;;;;;;3.58;1.02;;;;;;;17.35;57.68;101025.42;1768429;81;25501;-59
2021/06/01 11:14:03;;;;;;;1.22;0.93;;;;;;;17.31;58.11;101024.59;1760809;81;26538;-59
2021/06/01 11:16:54;;;;;;;6.97;1.15;;;;;;;17.24;58.18;101024.95;1819863;78;25633;-59
2021/06/01 11:19:26;;;;;;;3.85;1.30;;;;;;;17.05;59.35;101018.88;1695871;84;27988;-59
2021/06/01 11:22:00;;;;;;;5.65;1.30;;;;;;;16.96;58.51;101026.70;1695190;84;25796;-58
2021/06/01 11:35:47;;;;;;;5.65;1.47;;;;;;;16.07;61.13;101030.88;1781366;79;25565;-59
2021/06/01 11:41:05;;;;;;;5.05;1.32;;;;;;;15.83;62.70;101037.56;1751129;81;25773;-59
2021/06/01 11:43:25;;;;;;;8.43;2.10;;;;;;;15.75;63.12;101035.66;1818098;78;25641;-59
2021/06/01 11:51:24;;;;;;;2.65;1.25;;;;;;;15.82;63.12;101040.80;1786728;78;25555;-58
2021/06/01 11:54:03;;;;;;;4.50;1.17;;;;;;;15.84;64.59;101038.77;1798402;79;25732;-59
2021/06/01 12:12:53;;;;;;;1.42;1.27;;;;;;;16.32;58.61;101026.00;1786574;80;27416;-57
2021/06/01 12:20:42;;;;;;;4.00;1.90;;;;;;;16.65;58.79;101026.01;1787916;79;26340;-58
2021/06/01 12:23:36;;;;;;;2.52;1.90;;;;;;;16.68;58.55;101027.03;1794862;79;25334;-58
2021/06/01 12:26:19;;;;;;;2.70;1.80;;;;;;;16.66;57.96;101024.99;1794780;79;27371;-60
2021/06/01 12:32:23;;;;;;;4.55;2.00;;;;;;;16.66;56.81;101023.63;1794916;78;25686;-59
2021/06/01 12:43:57;;;;;;;4.55;2.30;;;;;;;16.41;56.71;101028.54;1811152;79;25712;-58
2021/06/01 13:12:32;;;;;;;4.17;1.87;;;;;;;16.55;57.52;101041.13;1789734;80;25646;-58
2021/06/01 13:39:25;;;;;;;1.95;1.77;;;;;;;16.25;56.29;101051.11;1809980;78;25853;-58
2021/06/01 13:47:20;;;;;;;8.45;2.55;;;;;;;16.13;57.02;101057.86;1790473;79;25818;-58
2021/06/01 13:49:55;;;;;;;5.17;2.08;;;;;;;16.12;57.20;101057.52;1789702;80;27424;-59
2021/06/01 13:57:59;;;;;;;7.80;2.47;;;;;;;15.86;57.88;101063.88;1776777;80;25803;-59
2021/06/01 14:30:11;;;;;;;6.45;4.25;;;;;;;15.37;60.54;101069.89;1786040;79;27408;-58
2021/06/01 15:31:55;;;;;;;2.58;1.40;;;;;;;14.64;62.78;101064.24;1762002;78;25932;-59
2021/06/01 16:21:55;;;;;;;11.40;1.75;;;;;;;14.25;61.57;101073.00;1786299;79;25608;-59
2021/06/01 17:11:09;;;;;;;3.72;1.80;;;;;;;13.75;62.59;101101.36;1777024;80;25626;-58
2021/06/01 17:13:50;;;;;;;4.28;1.70;;;;;;;13.73;62.30;101103.35;1776539;80;27453;-58